sensor_id;sensor_type;location;lat;lon;timestamp;P1;durP1;ratioP1;P2;durP2;ratioP2
35114;SDS011;21292;52.416;13.046;2023-02-15T00:00:08;116.00;;;41.08;;
35114;SDS011;21292;52.416;13.046;2023-02-15T00:02:38;133.82;;;40.60;;
35114;SDS011;21292;52.416;13.046;2023-02-15T00:05:08;115.05;;;42.15;;
35114;SDS011;21292;52.416;13.046;2023-02-15T00:07:37;111.47;;;39.85;;
35114;SDS011;21292;52.416;13.046;2023-02-15T00:10:06;118.05;;;40.95;;
35114;SDS011;21292;52.416;13.046;2023-02-15T00:12:35;117.43;;;41.55;;
35114;SDS011;21292;52.416;13.046;2023-02-15T00:15:06;125.97;;;41.72;;
35114;SDS011;21292;52.416;13.046;2023-02-15T00:17:34;124.25;;;42.42;;
35114;SDS011;21292;52.416;13.046;2023-02-15T00:20:03;138.07;;;43.25;;
35114;SDS011;21292;52.416;13.046;2023-02-15T00:22:33;128.48;;;45.40;;
35114;SDS011;21292;52.416;13.046;2023-02-15T00:25:01;136.13;;;44.90;;
35114;SDS011;21292;52.416;13.046;2023-02-15T00:27:29;125.18;;;42.38;;
35114;SDS011;21292;52.416;13.046;2023-02-15T00:30:01;142.07;;;43.55;;
35114;SDS011;21292;52.416;13.046;2023-02-15T00:32:31;133.20;;;46.00;;
35114;SDS011;21292;52.416;13.046;2023-02-15T00:35:01;124.25;;;40.70;;
35114;SDS011;21292;52.416;13.046;2023-02-15T00:37:30;131.25;;;44.40;;
35114;SDS011;21292;52.416;13.046;2023-02-15T00:39:58;128.35;;;43.28;;
35114;SDS011;21292;52.416;13.046;2023-02-15T00:42:26;123.40;;;44.55;;
35114;SDS011;21292;52.416;13.046;2023-02-15T00:44:54;128.68;;;43.47;;
35114;SDS011;21292;52.416;13.046;2023-02-15T00:47:22;132.30;;;41.80;;
35114;SDS011;21292;52.416;13.046;2023-02-15T00:49:55;143.80;;;45.13;;
35114;SDS011;21292;52.416;13.046;2023-02-15T00:54:51;134.32;;;42.17;;
35114;SDS011;21292;52.416;13.046;2023-02-15T00:57:19;133.05;;;42.10;;
35114;SDS011;21292;52.416;13.046;2023-02-15T00:59:48;138.80;;;44.40;;
35114;SDS011;21292;52.416;13.046;2023-02-15T01:02:16;128.45;;;42.65;;
35114;SDS011;21292;52.416;13.046;2023-02-15T01:04:44;123.28;;;42.00;;
35114;SDS011;21292;52.416;13.046;2023-02-15T01:07:14;122.28;;;41.28;;
35114;SDS011;21292;52.416;13.046;2023-02-15T01:09:42;127.45;;;42.38;;
35114;SDS011;21292;52.416;13.046;2023-02-15T01:12:10;143.57;;;40.92;;
35114;SDS011;21292;52.416;13.046;2023-02-15T01:14:39;137.27;;;43.28;;
35114;SDS011;21292;52.416;13.046;2023-02-15T01:17:08;150.07;;;43.03;;
35114;SDS011;21292;52.416;13.046;2023-02-15T01:19:36;130.23;;;43.65;;
35114;SDS011;21292;52.416;13.046;2023-02-15T01:22:04;135.82;;;42.67;;
35114;SDS011;21292;52.416;13.046;2023-02-15T01:24:34;132.43;;;41.45;;
35114;SDS011;21292;52.416;13.046;2023-02-15T01:27:02;136.15;;;43.63;;
35114;SDS011;21292;52.416;13.046;2023-02-15T01:29:31;136.85;;;44.22;;
35114;SDS011;21292;52.416;13.046;2023-02-15T01:32:00;134.65;;;40.85;;
35114;SDS011;21292;52.416;13.046;2023-02-15T01:34:29;136.95;;;43.65;;
35114;SDS011;21292;52.416;13.046;2023-02-15T01:36:58;132.52;;;42.97;;
35114;SDS011;21292;52.416;13.046;2023-02-15T01:39:26;129.15;;;41.53;;
35114;SDS011;21292;52.416;13.046;2023-02-15T01:41:55;127.72;;;43.80;;
35114;SDS011;21292;52.416;13.046;2023-02-15T01:47:14;149.02;;;43.90;;
35114;SDS011;21292;52.416;13.046;2023-02-15T01:49:44;141.83;;;45.77;;
35114;SDS011;21292;52.416;13.046;2023-02-15T01:52:16;134.10;;;41.40;;
35114;SDS011;21292;52.416;13.046;2023-02-15T01:54:45;152.93;;;41.83;;
35114;SDS011;21292;52.416;13.046;2023-02-15T01:57:16;135.70;;;43.03;;
35114;SDS011;21292;52.416;13.046;2023-02-15T01:59:47;142.48;;;43.72;;
35114;SDS011;21292;52.416;13.046;2023-02-15T02:02:18;153.93;;;44.25;;
35114;SDS011;21292;52.416;13.046;2023-02-15T02:04:48;166.15;;;47.30;;
35114;SDS011;21292;52.416;13.046;2023-02-15T02:07:18;156.63;;;45.42;;
35114;SDS011;21292;52.416;13.046;2023-02-15T02:09:47;148.88;;;43.42;;
35114;SDS011;21292;52.416;13.046;2023-02-15T02:12:18;163.07;;;48.05;;
35114;SDS011;21292;52.416;13.046;2023-02-15T02:14:47;147.63;;;43.50;;
35114;SDS011;21292;52.416;13.046;2023-02-15T02:17:17;164.18;;;47.00;;
35114;SDS011;21292;52.416;13.046;2023-02-15T02:19:55;161.10;;;48.45;;
35114;SDS011;21292;52.416;13.046;2023-02-15T02:25:45;147.80;;;44.83;;
35114;SDS011;21292;52.416;13.046;2023-02-15T02:28:31;152.18;;;45.25;;
35114;SDS011;21292;52.416;13.046;2023-02-15T02:31:24;157.93;;;45.28;;
35114;SDS011;21292;52.416;13.046;2023-02-15T02:34:07;139.50;;;44.42;;
35114;SDS011;21292;52.416;13.046;2023-02-15T02:36:42;165.80;;;47.85;;
35114;SDS011;21292;52.416;13.046;2023-02-15T02:39:18;159.93;;;46.40;;
35114;SDS011;21292;52.416;13.046;2023-02-15T02:41:51;157.95;;;47.92;;
35114;SDS011;21292;52.416;13.046;2023-02-15T02:44:25;141.38;;;45.45;;
35114;SDS011;21292;52.416;13.046;2023-02-15T02:46:57;149.23;;;44.53;;
35114;SDS011;21292;52.416;13.046;2023-02-15T02:49:31;155.50;;;45.30;;
35114;SDS011;21292;52.416;13.046;2023-02-15T02:52:00;158.68;;;46.10;;
35114;SDS011;21292;52.416;13.046;2023-02-15T02:54:29;138.88;;;46.28;;
35114;SDS011;21292;52.416;13.046;2023-02-15T02:56:59;165.52;;;48.00;;
35114;SDS011;21292;52.416;13.046;2023-02-15T02:59:31;159.55;;;46.40;;
35114;SDS011;21292;52.416;13.046;2023-02-15T03:02:02;161.38;;;46.45;;
35114;SDS011;21292;52.416;13.046;2023-02-15T03:04:35;159.73;;;44.47;;
35114;SDS011;21292;52.416;13.046;2023-02-15T03:09:35;165.90;;;43.45;;
35114;SDS011;21292;52.416;13.046;2023-02-15T03:12:13;146.40;;;45.40;;
35114;SDS011;21292;52.416;13.046;2023-02-15T03:14:44;166.13;;;46.90;;
35114;SDS011;21292;52.416;13.046;2023-02-15T03:17:16;165.43;;;45.80;;
35114;SDS011;21292;52.416;13.046;2023-02-15T03:19:46;151.10;;;42.35;;
35114;SDS011;21292;52.416;13.046;2023-02-15T03:22:19;168.40;;;48.03;;
35114;SDS011;21292;52.416;13.046;2023-02-15T03:24:51;162.13;;;46.85;;
35114;SDS011;21292;52.416;13.046;2023-02-15T03:27:24;189.60;;;49.90;;
35114;SDS011;21292;52.416;13.046;2023-02-15T03:29:56;179.13;;;49.97;;
35114;SDS011;21292;52.416;13.046;2023-02-15T03:32:27;171.73;;;48.75;;
35114;SDS011;21292;52.416;13.046;2023-02-15T03:34:58;188.02;;;51.42;;
35114;SDS011;21292;52.416;13.046;2023-02-15T03:37:28;167.43;;;47.83;;
35114;SDS011;21292;52.416;13.046;2023-02-15T03:40:00;177.18;;;48.45;;
35114;SDS011;21292;52.416;13.046;2023-02-15T03:42:53;161.13;;;47.22;;
35114;SDS011;21292;52.416;13.046;2023-02-15T03:45:28;166.48;;;47.13;;
35114;SDS011;21292;52.416;13.046;2023-02-15T03:50:34;164.77;;;47.50;;
35114;SDS011;21292;52.416;13.046;2023-02-15T03:53:23;177.95;;;47.05;;
35114;SDS011;21292;52.416;13.046;2023-02-15T03:55:53;180.53;;;48.90;;
35114;SDS011;21292;52.416;13.046;2023-02-15T03:58:22;191.00;;;51.20;;
35114;SDS011;21292;52.416;13.046;2023-02-15T04:01:10;163.55;;;50.92;;
35114;SDS011;21292;52.416;13.046;2023-02-15T04:04:00;161.63;;;47.67;;
35114;SDS011;21292;52.416;13.046;2023-02-15T04:06:33;175.10;;;50.42;;
35114;SDS011;21292;52.416;13.046;2023-02-15T04:09:02;185.80;;;52.00;;
35114;SDS011;21292;52.416;13.046;2023-02-15T04:11:48;196.43;;;53.03;;
35114;SDS011;21292;52.416;13.046;2023-02-15T04:14:16;206.63;;;54.28;;
35114;SDS011;21292;52.416;13.046;2023-02-15T04:17:04;211.00;;;59.03;;
35114;SDS011;21292;52.416;13.046;2023-02-15T04:19:33;218.40;;;57.65;;
35114;SDS011;21292;52.416;13.046;2023-02-15T04:22:20;214.57;;;58.28;;
35114;SDS011;21292;52.416;13.046;2023-02-15T04:25:07;216.95;;;58.53;;
35114;SDS011;21292;52.416;13.046;2023-02-15T04:27:40;219.10;;;55.35;;
35114;SDS011;21292;52.416;13.046;2023-02-15T04:30:09;226.13;;;56.88;;
35114;SDS011;21292;52.416;13.046;2023-02-15T04:32:38;218.73;;;57.90;;
35114;SDS011;21292;52.416;13.046;2023-02-15T04:35:07;229.13;;;57.58;;
35114;SDS011;21292;52.416;13.046;2023-02-15T04:37:37;225.07;;;56.42;;
35114;SDS011;21292;52.416;13.046;2023-02-15T04:40:08;226.90;;;57.88;;
35114;SDS011;21292;52.416;13.046;2023-02-15T04:42:38;251.73;;;58.72;;
35114;SDS011;21292;52.416;13.046;2023-02-15T04:45:06;280.33;;;63.75;;
35114;SDS011;21292;52.416;13.046;2023-02-15T04:47:37;245.70;;;58.45;;
35114;SDS011;21292;52.416;13.046;2023-02-15T04:50:07;306.45;;;68.10;;
35114;SDS011;21292;52.416;13.046;2023-02-15T04:52:36;397.35;;;68.60;;
35114;SDS011;21292;52.416;13.046;2023-02-15T04:55:06;494.08;;;80.93;;
35114;SDS011;21292;52.416;13.046;2023-02-15T04:57:35;412.50;;;67.68;;
35114;SDS011;21292;52.416;13.046;2023-02-15T05:00:04;371.55;;;62.97;;
35114;SDS011;21292;52.416;13.046;2023-02-15T05:02:33;662.50;;;97.50;;
35114;SDS011;21292;52.416;13.046;2023-02-15T05:05:00;523.35;;;78.35;;
35114;SDS011;21292;52.416;13.046;2023-02-15T05:07:29;358.10;;;54.55;;
35114;SDS011;21292;52.416;13.046;2023-02-15T05:09:58;530.28;;;76.75;;
35114;SDS011;21292;52.416;13.046;2023-02-15T05:12:26;496.05;;;75.00;;
35114;SDS011;21292;52.416;13.046;2023-02-15T05:14:55;531.60;;;74.70;;
35114;SDS011;21292;52.416;13.046;2023-02-15T05:17:24;392.92;;;66.00;;
35114;SDS011;21292;52.416;13.046;2023-02-15T05:19:52;490.40;;;76.35;;
35114;SDS011;21292;52.416;13.046;2023-02-15T05:22:22;417.73;;;69.45;;
35114;SDS011;21292;52.416;13.046;2023-02-15T05:24:50;443.25;;;66.93;;
35114;SDS011;21292;52.416;13.046;2023-02-15T05:27:38;512.45;;;72.55;;
35114;SDS011;21292;52.416;13.046;2023-02-15T05:30:23;467.20;;;63.55;;
35114;SDS011;21292;52.416;13.046;2023-02-15T05:32:53;441.48;;;71.32;;
35114;SDS011;21292;52.416;13.046;2023-02-15T05:35:22;483.42;;;69.28;;
35114;SDS011;21292;52.416;13.046;2023-02-15T05:37:51;507.77;;;72.35;;
35114;SDS011;21292;52.416;13.046;2023-02-15T05:40:19;411.05;;;65.78;;
35114;SDS011;21292;52.416;13.046;2023-02-15T05:42:49;429.30;;;64.20;;
35114;SDS011;21292;52.416;13.046;2023-02-15T05:45:17;488.98;;;73.82;;
35114;SDS011;21292;52.416;13.046;2023-02-15T05:47:45;409.15;;;66.22;;
35114;SDS011;21292;52.416;13.046;2023-02-15T05:50:14;432.85;;;73.00;;
35114;SDS011;21292;52.416;13.046;2023-02-15T05:52:42;371.77;;;64.85;;
35114;SDS011;21292;52.416;13.046;2023-02-15T05:55:10;400.10;;;68.68;;
35114;SDS011;21292;52.416;13.046;2023-02-15T05:57:38;305.23;;;62.85;;
35114;SDS011;21292;52.416;13.046;2023-02-15T06:00:10;321.27;;;57.50;;
35114;SDS011;21292;52.416;13.046;2023-02-15T06:02:40;1124.22;;;174.63;;
35114;SDS011;21292;52.416;13.046;2023-02-15T06:05:12;784.10;;;118.50;;
35114;SDS011;21292;52.416;13.046;2023-02-15T06:07:42;417.48;;;74.05;;
35114;SDS011;21292;52.416;13.046;2023-02-15T06:10:18;463.45;;;73.40;;
35114;SDS011;21292;52.416;13.046;2023-02-15T06:12:47;389.15;;;66.20;;
35114;SDS011;21292;52.416;13.046;2023-02-15T06:15:17;358.77;;;63.65;;
35114;SDS011;21292;52.416;13.046;2023-02-15T06:17:46;420.23;;;66.22;;
35114;SDS011;21292;52.416;13.046;2023-02-15T06:20:14;380.80;;;61.35;;
35114;SDS011;21292;52.416;13.046;2023-02-15T06:22:42;264.75;;;55.47;;
35114;SDS011;21292;52.416;13.046;2023-02-15T06:25:12;240.18;;;54.08;;
35114;SDS011;21292;52.416;13.046;2023-02-15T06:27:40;271.48;;;53.78;;
35114;SDS011;21292;52.416;13.046;2023-02-15T06:30:09;246.63;;;54.95;;
35114;SDS011;21292;52.416;13.046;2023-02-15T06:32:40;294.05;;;55.10;;
35114;SDS011;21292;52.416;13.046;2023-02-15T06:35:08;234.27;;;51.63;;
35114;SDS011;21292;52.416;13.046;2023-02-15T06:37:37;210.95;;;50.50;;
35114;SDS011;21292;52.416;13.046;2023-02-15T06:40:05;232.73;;;51.10;;
35114;SDS011;21292;52.416;13.046;2023-02-15T06:42:35;323.80;;;54.95;;
35114;SDS011;21292;52.416;13.046;2023-02-15T06:45:03;216.40;;;50.38;;
35114;SDS011;21292;52.416;13.046;2023-02-15T06:47:34;218.98;;;49.25;;
35114;SDS011;21292;52.416;13.046;2023-02-15T06:50:05;246.70;;;50.65;;
35114;SDS011;21292;52.416;13.046;2023-02-15T06:52:34;283.23;;;49.83;;
35114;SDS011;21292;52.416;13.046;2023-02-15T06:55:03;272.52;;;52.22;;
35114;SDS011;21292;52.416;13.046;2023-02-15T06:57:32;351.65;;;56.53;;
35114;SDS011;21292;52.416;13.046;2023-02-15T07:00:00;258.95;;;50.70;;
35114;SDS011;21292;52.416;13.046;2023-02-15T07:02:31;266.20;;;55.23;;
35114;SDS011;21292;52.416;13.046;2023-02-15T07:05:00;303.98;;;53.10;;
35114;SDS011;21292;52.416;13.046;2023-02-15T07:07:30;249.25;;;51.88;;
35114;SDS011;21292;52.416;13.046;2023-02-15T07:09:58;257.80;;;54.03;;
35114;SDS011;21292;52.416;13.046;2023-02-15T07:12:27;284.77;;;54.17;;
35114;SDS011;21292;52.416;13.046;2023-02-15T07:15:09;274.65;;;51.47;;
35114;SDS011;21292;52.416;13.046;2023-02-15T07:17:39;262.13;;;51.13;;
35114;SDS011;21292;52.416;13.046;2023-02-15T07:20:09;270.30;;;55.85;;
35114;SDS011;21292;52.416;13.046;2023-02-15T07:22:40;306.70;;;54.55;;
35114;SDS011;21292;52.416;13.046;2023-02-15T07:25:10;284.15;;;53.42;;
35114;SDS011;21292;52.416;13.046;2023-02-15T07:27:39;273.52;;;51.47;;
35114;SDS011;21292;52.416;13.046;2023-02-15T07:30:09;285.35;;;51.20;;
35114;SDS011;21292;52.416;13.046;2023-02-15T07:32:39;281.05;;;51.85;;
35114;SDS011;21292;52.416;13.046;2023-02-15T07:35:22;270.45;;;52.97;;
35114;SDS011;21292;52.416;13.046;2023-02-15T07:37:54;283.45;;;51.45;;
35114;SDS011;21292;52.416;13.046;2023-02-15T07:40:22;279.33;;;53.05;;
35114;SDS011;21292;52.416;13.046;2023-02-15T07:42:50;257.38;;;56.60;;
35114;SDS011;21292;52.416;13.046;2023-02-15T07:47:50;242.73;;;52.05;;
35114;SDS011;21292;52.416;13.046;2023-02-15T07:50:18;238.00;;;53.75;;
35114;SDS011;21292;52.416;13.046;2023-02-15T07:52:47;252.73;;;53.22;;
35114;SDS011;21292;52.416;13.046;2023-02-15T07:55:16;292.25;;;59.20;;
35114;SDS011;21292;52.416;13.046;2023-02-15T07:57:45;239.88;;;54.03;;
35114;SDS011;21292;52.416;13.046;2023-02-15T08:00:15;257.38;;;57.55;;
35114;SDS011;21292;52.416;13.046;2023-02-15T08:02:47;242.48;;;53.38;;
35114;SDS011;21292;52.416;13.046;2023-02-15T08:08:06;235.25;;;50.28;;
35114;SDS011;21292;52.416;13.046;2023-02-15T08:10:36;240.60;;;53.65;;
35114;SDS011;21292;52.416;13.046;2023-02-15T08:13:21;252.60;;;54.10;;
35114;SDS011;21292;52.416;13.046;2023-02-15T08:15:54;219.20;;;54.65;;
35114;SDS011;21292;52.416;13.046;2023-02-15T08:18:22;236.23;;;55.95;;
35114;SDS011;21292;52.416;13.046;2023-02-15T08:20:51;235.70;;;58.45;;
35114;SDS011;21292;52.416;13.046;2023-02-15T08:23:19;237.90;;;56.60;;
35114;SDS011;21292;52.416;13.046;2023-02-15T08:25:49;237.40;;;58.40;;
35114;SDS011;21292;52.416;13.046;2023-02-15T08:28:17;253.50;;;59.25;;
35114;SDS011;21292;52.416;13.046;2023-02-15T08:30:45;252.38;;;59.05;;
35114;SDS011;21292;52.416;13.046;2023-02-15T08:33:14;259.90;;;60.70;;
35114;SDS011;21292;52.416;13.046;2023-02-15T08:35:44;236.77;;;59.40;;
35114;SDS011;21292;52.416;13.046;2023-02-15T08:38:12;243.13;;;60.97;;
35114;SDS011;21292;52.416;13.046;2023-02-15T08:40:41;227.35;;;57.78;;
35114;SDS011;21292;52.416;13.046;2023-02-15T08:43:11;243.98;;;59.50;;
35114;SDS011;21292;52.416;13.046;2023-02-15T08:45:39;247.23;;;62.42;;
35114;SDS011;21292;52.416;13.046;2023-02-15T08:48:07;218.75;;;56.28;;
35114;SDS011;21292;52.416;13.046;2023-02-15T08:50:35;220.55;;;58.85;;
35114;SDS011;21292;52.416;13.046;2023-02-15T08:53:03;224.95;;;59.45;;
35114;SDS011;21292;52.416;13.046;2023-02-15T08:55:32;222.32;;;59.55;;
35114;SDS011;21292;52.416;13.046;2023-02-15T08:58:03;252.98;;;60.63;;
35114;SDS011;21292;52.416;13.046;2023-02-15T09:00:33;236.32;;;57.28;;
35114;SDS011;21292;52.416;13.046;2023-02-15T09:03:01;236.02;;;56.75;;
35114;SDS011;21292;52.416;13.046;2023-02-15T09:05:31;226.40;;;60.83;;
35114;SDS011;21292;52.416;13.046;2023-02-15T09:07:59;232.50;;;61.58;;
35114;SDS011;21292;52.416;13.046;2023-02-15T09:10:28;218.48;;;62.30;;
35114;SDS011;21292;52.416;13.046;2023-02-15T09:12:57;214.80;;;56.97;;
35114;SDS011;21292;52.416;13.046;2023-02-15T09:15:26;213.57;;;57.58;;
35114;SDS011;21292;52.416;13.046;2023-02-15T09:17:56;207.45;;;58.95;;
35114;SDS011;21292;52.416;13.046;2023-02-15T09:20:26;211.65;;;60.60;;
35114;SDS011;21292;52.416;13.046;2023-02-15T09:22:55;210.57;;;58.67;;
35114;SDS011;21292;52.416;13.046;2023-02-15T09:25:26;220.70;;;59.95;;
35114;SDS011;21292;52.416;13.046;2023-02-15T09:27:54;220.15;;;60.35;;
35114;SDS011;21292;52.416;13.046;2023-02-15T09:30:22;213.57;;;61.78;;
35114;SDS011;21292;52.416;13.046;2023-02-15T09:32:51;206.30;;;57.47;;
35114;SDS011;21292;52.416;13.046;2023-02-15T09:35:22;205.55;;;58.42;;
35114;SDS011;21292;52.416;13.046;2023-02-15T09:37:50;183.38;;;55.63;;
35114;SDS011;21292;52.416;13.046;2023-02-15T09:40:19;183.25;;;55.35;;
35114;SDS011;21292;52.416;13.046;2023-02-15T09:42:51;174.25;;;56.95;;
35114;SDS011;21292;52.416;13.046;2023-02-15T09:45:29;160.55;;;49.50;;
35114;SDS011;21292;52.416;13.046;2023-02-15T09:48:15;163.48;;;51.88;;
35114;SDS011;21292;52.416;13.046;2023-02-15T09:50:58;141.30;;;49.72;;
35114;SDS011;21292;52.416;13.046;2023-02-15T09:53:38;143.27;;;48.92;;
35114;SDS011;21292;52.416;13.046;2023-02-15T09:56:18;140.07;;;49.90;;
35114;SDS011;21292;52.416;13.046;2023-02-15T09:58:50;134.77;;;46.83;;
35114;SDS011;21292;52.416;13.046;2023-02-15T10:01:24;131.32;;;47.40;;
35114;SDS011;21292;52.416;13.046;2023-02-15T10:04:01;123.43;;;43.80;;
35114;SDS011;21292;52.416;13.046;2023-02-15T10:06:38;120.63;;;44.13;;
35114;SDS011;21292;52.416;13.046;2023-02-15T10:09:14;102.22;;;39.40;;
35114;SDS011;21292;52.416;13.046;2023-02-15T10:11:54;91.80;;;39.35;;
35114;SDS011;21292;52.416;13.046;2023-02-15T10:14:33;99.78;;;39.20;;
35114;SDS011;21292;52.416;13.046;2023-02-15T10:17:19;101.90;;;40.15;;
35114;SDS011;21292;52.416;13.046;2023-02-15T10:19:56;91.40;;;39.03;;
35114;SDS011;21292;52.416;13.046;2023-02-15T10:22:37;93.05;;;39.92;;
35114;SDS011;21292;52.416;13.046;2023-02-15T10:25:20;95.97;;;37.80;;
35114;SDS011;21292;52.416;13.046;2023-02-15T10:27:57;92.80;;;37.42;;
35114;SDS011;21292;52.416;13.046;2023-02-15T10:30:27;91.63;;;38.03;;
35114;SDS011;21292;52.416;13.046;2023-02-15T10:33:02;85.28;;;37.75;;
35114;SDS011;21292;52.416;13.046;2023-02-15T10:35:33;91.00;;;38.58;;
35114;SDS011;21292;52.416;13.046;2023-02-15T10:38:17;78.20;;;34.90;;
35114;SDS011;21292;52.416;13.046;2023-02-15T10:40:51;87.80;;;36.33;;
35114;SDS011;21292;52.416;13.046;2023-02-15T10:43:37;81.53;;;35.33;;
35114;SDS011;21292;52.416;13.046;2023-02-15T10:46:16;80.50;;;35.67;;
35114;SDS011;21292;52.416;13.046;2023-02-15T10:49:00;75.70;;;34.78;;
35114;SDS011;21292;52.416;13.046;2023-02-15T10:51:39;84.25;;;35.40;;
35114;SDS011;21292;52.416;13.046;2023-02-15T10:54:16;80.05;;;35.08;;
35114;SDS011;21292;52.416;13.046;2023-02-15T10:56:50;79.72;;;34.60;;
35114;SDS011;21292;52.416;13.046;2023-02-15T10:59:26;71.65;;;34.03;;
35114;SDS011;21292;52.416;13.046;2023-02-15T11:02:04;70.13;;;33.53;;
35114;SDS011;21292;52.416;13.046;2023-02-15T11:04:45;82.88;;;34.17;;
35114;SDS011;21292;52.416;13.046;2023-02-15T11:07:20;65.30;;;31.98;;
35114;SDS011;21292;52.416;13.046;2023-02-15T11:09:53;68.47;;;33.35;;
35114;SDS011;21292;52.416;13.046;2023-02-15T11:12:27;71.53;;;34.70;;
35114;SDS011;21292;52.416;13.046;2023-02-15T11:14:57;75.88;;;34.75;;
35114;SDS011;21292;52.416;13.046;2023-02-15T11:17:28;73.07;;;33.67;;
35114;SDS011;21292;52.416;13.046;2023-02-15T11:20:04;71.22;;;32.85;;
35114;SDS011;21292;52.416;13.046;2023-02-15T11:22:37;69.70;;;34.58;;
35114;SDS011;21292;52.416;13.046;2023-02-15T11:25:14;70.18;;;31.23;;
35114;SDS011;21292;52.416;13.046;2023-02-15T11:27:47;65.70;;;32.30;;
35114;SDS011;21292;52.416;13.046;2023-02-15T11:30:19;66.15;;;32.90;;
35114;SDS011;21292;52.416;13.046;2023-02-15T11:32:50;68.55;;;32.78;;
35114;SDS011;21292;52.416;13.046;2023-02-15T11:35:24;69.15;;;32.75;;
35114;SDS011;21292;52.416;13.046;2023-02-15T11:38:00;63.38;;;34.35;;
35114;SDS011;21292;52.416;13.046;2023-02-15T11:40:33;64.80;;;32.83;;
35114;SDS011;21292;52.416;13.046;2023-02-15T11:43:03;63.25;;;29.67;;
35114;SDS011;21292;52.416;13.046;2023-02-15T11:45:33;68.43;;;32.83;;
35114;SDS011;21292;52.416;13.046;2023-02-15T11:48:07;69.20;;;32.80;;
35114;SDS011;21292;52.416;13.046;2023-02-15T11:50:37;65.05;;;33.40;;
35114;SDS011;21292;52.416;13.046;2023-02-15T11:53:09;59.45;;;28.92;;
35114;SDS011;21292;52.416;13.046;2023-02-15T11:55:40;63.70;;;31.60;;
35114;SDS011;21292;52.416;13.046;2023-02-15T11:58:16;60.90;;;33.15;;
35114;SDS011;21292;52.416;13.046;2023-02-15T12:00:58;62.63;;;32.53;;
35114;SDS011;21292;52.416;13.046;2023-02-15T12:03:35;68.25;;;32.35;;
35114;SDS011;21292;52.416;13.046;2023-02-15T12:06:14;72.15;;;32.10;;
35114;SDS011;21292;52.416;13.046;2023-02-15T12:08:46;63.10;;;31.10;;
35114;SDS011;21292;52.416;13.046;2023-02-15T12:11:22;61.60;;;31.17;;
35114;SDS011;21292;52.416;13.046;2023-02-15T12:13:56;60.97;;;30.10;;
35114;SDS011;21292;52.416;13.046;2023-02-15T12:16:26;62.63;;;32.55;;
35114;SDS011;21292;52.416;13.046;2023-02-15T12:18:57;65.22;;;32.00;;
35114;SDS011;21292;52.416;13.046;2023-02-15T12:21:27;58.10;;;31.23;;
35114;SDS011;21292;52.416;13.046;2023-02-15T12:24:00;61.20;;;31.83;;
35114;SDS011;21292;52.416;13.046;2023-02-15T12:26:33;60.55;;;30.90;;
35114;SDS011;21292;52.416;13.046;2023-02-15T12:29:06;69.55;;;33.05;;
35114;SDS011;21292;52.416;13.046;2023-02-15T12:31:40;59.17;;;30.33;;
35114;SDS011;21292;52.416;13.046;2023-02-15T12:34:12;55.35;;;29.42;;
35114;SDS011;21292;52.416;13.046;2023-02-15T12:36:47;55.95;;;29.42;;
35114;SDS011;21292;52.416;13.046;2023-02-15T12:39:24;52.90;;;28.40;;
35114;SDS011;21292;52.416;13.046;2023-02-15T12:42:01;54.40;;;28.02;;
35114;SDS011;21292;52.416;13.046;2023-02-15T12:44:33;54.25;;;28.05;;
35114;SDS011;21292;52.416;13.046;2023-02-15T12:47:04;55.72;;;28.42;;
35114;SDS011;21292;52.416;13.046;2023-02-15T12:49:37;52.45;;;28.08;;
35114;SDS011;21292;52.416;13.046;2023-02-15T12:52:23;47.47;;;26.73;;
35114;SDS011;21292;52.416;13.046;2023-02-15T12:54:52;53.75;;;26.52;;
35114;SDS011;21292;52.416;13.046;2023-02-15T12:57:23;44.75;;;25.63;;
35114;SDS011;21292;52.416;13.046;2023-02-15T12:59:54;48.97;;;25.98;;
35114;SDS011;21292;52.416;13.046;2023-02-15T13:02:28;42.75;;;25.10;;
35114;SDS011;21292;52.416;13.046;2023-02-15T13:05:04;46.20;;;24.90;;
35114;SDS011;21292;52.416;13.046;2023-02-15T13:07:44;40.05;;;22.00;;
35114;SDS011;21292;52.416;13.046;2023-02-15T13:10:18;39.25;;;19.88;;
35114;SDS011;21292;52.416;13.046;2023-02-15T13:12:57;35.92;;;19.35;;
35114;SDS011;21292;52.416;13.046;2023-02-15T13:15:30;36.85;;;20.48;;
35114;SDS011;21292;52.416;13.046;2023-02-15T13:18:02;37.25;;;21.67;;
35114;SDS011;21292;52.416;13.046;2023-02-15T13:20:33;43.35;;;23.02;;
35114;SDS011;21292;52.416;13.046;2023-02-15T13:23:05;35.60;;;19.65;;
35114;SDS011;21292;52.416;13.046;2023-02-15T13:25:37;40.08;;;21.38;;
35114;SDS011;21292;52.416;13.046;2023-02-15T13:28:13;34.50;;;19.83;;
35114;SDS011;21292;52.416;13.046;2023-02-15T13:30:43;35.80;;;18.77;;
35114;SDS011;21292;52.416;13.046;2023-02-15T13:33:14;36.03;;;19.33;;
35114;SDS011;21292;52.416;13.046;2023-02-15T13:35:46;30.67;;;18.10;;
35114;SDS011;21292;52.416;13.046;2023-02-15T13:38:28;21.15;;;13.32;;
35114;SDS011;21292;52.416;13.046;2023-02-15T13:41:09;21.88;;;13.88;;
35114;SDS011;21292;52.416;13.046;2023-02-15T13:43:43;21.17;;;13.05;;
35114;SDS011;21292;52.416;13.046;2023-02-15T13:46:22;19.88;;;12.70;;
35114;SDS011;21292;52.416;13.046;2023-02-15T13:49:02;18.63;;;12.15;;
35114;SDS011;21292;52.416;13.046;2023-02-15T13:51:38;20.48;;;13.13;;
35114;SDS011;21292;52.416;13.046;2023-02-15T13:54:20;25.15;;;13.25;;
35114;SDS011;21292;52.416;13.046;2023-02-15T13:57:16;18.58;;;11.95;;
35114;SDS011;21292;52.416;13.046;2023-02-15T13:59:57;21.30;;;11.98;;
35114;SDS011;21292;52.416;13.046;2023-02-15T14:02:37;19.50;;;12.32;;
35114;SDS011;21292;52.416;13.046;2023-02-15T14:05:15;21.02;;;12.73;;
35114;SDS011;21292;52.416;13.046;2023-02-15T14:07:56;18.48;;;12.02;;
35114;SDS011;21292;52.416;13.046;2023-02-15T14:10:44;18.15;;;12.00;;
35114;SDS011;21292;52.416;13.046;2023-02-15T14:16:15;18.10;;;11.80;;
35114;SDS011;21292;52.416;13.046;2023-02-15T14:18:51;19.23;;;11.82;;
35114;SDS011;21292;52.416;13.046;2023-02-15T14:21:25;20.23;;;12.45;;
35114;SDS011;21292;52.416;13.046;2023-02-15T14:24:00;16.27;;;11.30;;
35114;SDS011;21292;52.416;13.046;2023-02-15T14:26:38;19.88;;;12.63;;
35114;SDS011;21292;52.416;13.046;2023-02-15T14:29:14;20.08;;;12.27;;
35114;SDS011;21292;52.416;13.046;2023-02-15T14:31:50;16.52;;;10.88;;
35114;SDS011;21292;52.416;13.046;2023-02-15T14:34:21;21.95;;;13.02;;
35114;SDS011;21292;52.416;13.046;2023-02-15T14:36:51;19.23;;;12.25;;
35114;SDS011;21292;52.416;13.046;2023-02-15T14:39:23;21.83;;;12.27;;
35114;SDS011;21292;52.416;13.046;2023-02-15T14:42:16;18.60;;;11.60;;
35114;SDS011;21292;52.416;13.046;2023-02-15T14:44:49;18.67;;;11.23;;
35114;SDS011;21292;52.416;13.046;2023-02-15T14:47:24;20.50;;;12.45;;
35114;SDS011;21292;52.416;13.046;2023-02-15T14:49:56;19.40;;;12.00;;
35114;SDS011;21292;52.416;13.046;2023-02-15T14:52:26;16.17;;;11.27;;